createdAt,value
2017-08-22T00:00:07.279Z,1003.58
2017-08-22T00:01:17.318Z,1003.61
2017-08-22T00:02:32.272Z,1003.6
2017-08-22T00:03:42.286Z,1003.62
2017-08-22T00:04:53.717Z,1003.6
2017-08-22T00:06:05.156Z,1003.63
2017-08-22T00:07:15.497Z,1003.62
2017-08-22T00:08:25.536Z,1003.63
2017-08-22T00:09:35.880Z,1003.61
2017-08-22T00:10:45.953Z,1003.6
2017-08-22T00:11:56.293Z,1003.65
2017-08-22T00:13:06.628Z,1003.63
2017-08-22T00:14:16.966Z,1003.67
2017-08-22T00:15:27.318Z,1003.68
2017-08-22T00:16:37.406Z,1003.64
2017-08-22T00:17:47.433Z,1003.68
2017-08-22T00:18:57.639Z,1003.66
2017-08-22T00:20:07.978Z,1003.64
2017-08-22T00:21:18.337Z,1003.65
2017-08-22T00:22:28.404Z,1003.67
2017-08-22T00:23:38.439Z,1003.63
2017-08-22T00:24:48.777Z,1003.67
2017-08-22T00:25:59.130Z,1003.65
2017-08-22T00:27:09.186Z,1003.68
2017-08-22T00:28:19.585Z,1003.66
2017-08-22T00:29:29.632Z,1003.69
2017-08-22T00:30:39.976Z,1003.68
2017-08-22T00:31:50.315Z,1003.68
2017-08-22T00:33:00.647Z,1003.7
2017-08-22T00:34:11.040Z,1003.7
2017-08-22T00:35:23.321Z,1003.69
2017-08-22T00:36:34.404Z,1003.69
2017-08-22T00:37:44.760Z,1003.68
2017-08-22T00:38:55.105Z,1003.69
2017-08-22T00:40:05.516Z,1003.67
2017-08-22T00:41:15.890Z,1003.69
2017-08-22T00:42:26.493Z,1003.69
2017-08-22T00:43:36.870Z,1003.71
2017-08-22T00:44:47.214Z,1003.73
2017-08-22T00:45:57.888Z,1003.72
2017-08-22T00:47:08.256Z,1003.69
2017-08-22T00:48:19.990Z,1003.65
2017-08-22T00:49:30.325Z,1003.66
2017-08-22T00:50:40.673Z,1003.67
2017-08-22T00:51:53.357Z,1003.7
2017-08-22T00:53:04.699Z,1003.73
2017-08-22T00:54:14.719Z,1003.72
2017-08-22T00:55:25.057Z,1003.78
2017-08-22T00:56:35.424Z,1003.76
2017-08-22T00:57:45.816Z,1003.76
2017-08-22T00:58:56.148Z,1003.78
2017-08-22T01:00:06.793Z,1003.77
2017-08-22T01:01:17.156Z,1003.79
2017-08-22T01:02:27.494Z,1003.81
2017-08-22T01:03:37.280Z,1003.76
2017-08-22T01:04:47.632Z,1003.77
2017-08-22T01:05:57.990Z,1003.8
2017-08-22T01:07:08.037Z,1003.79
2017-08-22T01:08:19.081Z,1003.78
2017-08-22T01:09:30.972Z,1003.75
2017-08-22T01:10:41.001Z,1003.8
2017-08-22T01:11:53.706Z,1003.82
2017-08-22T01:13:04.052Z,1003.77
2017-08-22T01:14:14.084Z,1003.81
2017-08-22T01:15:24.164Z,1003.8
2017-08-22T01:16:34.507Z,1003.81
2017-08-22T01:17:44.842Z,1003.82
2017-08-22T01:18:55.176Z,1003.81
2017-08-22T01:20:07.422Z,1003.8
2017-08-22T01:21:24.359Z,1003.75
2017-08-22T01:22:36.350Z,1003.8
2017-08-22T01:23:46.700Z,1003.74
2017-08-22T01:24:57.075Z,1003.78
2017-08-22T01:26:07.416Z,1003.76
2017-08-22T01:27:17.850Z,1003.77
2017-08-22T01:28:28.195Z,1003.8
2017-08-22T01:29:38.544Z,1003.78
2017-08-22T01:30:48.568Z,1003.75
2017-08-22T01:31:58.289Z,1003.76
2017-08-22T01:33:08.371Z,1003.73
2017-08-22T01:34:18.114Z,1003.77
2017-08-22T01:35:29.581Z,1003.77
2017-08-22T01:36:39.929Z,1003.77
2017-08-22T01:37:50.283Z,1003.78
2017-08-22T01:39:00.680Z,1003.75
2017-08-22T01:40:11.266Z,1003.76
2017-08-22T01:41:21.599Z,1003.77
2017-08-22T01:42:31.933Z,1003.75
2017-08-22T01:43:41.974Z,1003.74
2017-08-22T01:44:52.049Z,1003.73
2017-08-22T01:46:02.385Z,1003.76
2017-08-22T01:47:12.732Z,1003.76
2017-08-22T01:48:23.070Z,1003.8
2017-08-22T01:49:35.267Z,1003.82
2017-08-22T01:50:45.018Z,1003.78
2017-08-22T01:51:55.045Z,1003.79
2017-08-22T01:53:05.076Z,1003.82
2017-08-22T01:54:15.420Z,1003.77
2017-08-22T01:55:25.794Z,1003.76
2017-08-22T01:56:35.873Z,1003.78
2017-08-22T01:57:45.900Z,1003.76
2017-08-22T01:58:56.247Z,1003.77
2017-08-22T02:00:10.190Z,1003.78
2017-08-22T02:01:19.911Z,1003.74
2017-08-22T02:02:30.299Z,1003.73
2017-08-22T02:03:42.095Z,1003.68
2017-08-22T02:04:52.445Z,1003.69
2017-08-22T02:06:04.891Z,1003.69
2017-08-22T02:07:15.253Z,1003.68
2017-08-22T02:08:25.344Z,1003.7
2017-08-22T02:09:35.691Z,1003.66
2017-08-22T02:10:46.035Z,1003.68
2017-08-22T02:11:56.355Z,1003.72
2017-08-22T02:13:06.687Z,1003.74
2017-08-22T02:14:17.115Z,1003.71
2017-08-22T02:15:27.460Z,1003.67
2017-08-22T02:16:37.807Z,1003.68
2017-08-22T02:17:48.154Z,1003.64
2017-08-22T02:18:58.501Z,1003.69
2017-08-22T02:20:08.892Z,1003.62
2017-08-22T02:21:18.908Z,1003.65
2017-08-22T02:22:29.250Z,1003.64
2017-08-22T02:23:39.273Z,1003.71
2017-08-22T02:24:49.617Z,1003.7
2017-08-22T02:26:00.022Z,1003.69
2017-08-22T02:27:10.049Z,1003.7
2017-08-22T02:28:20.105Z,1003.69
2017-08-22T02:29:30.453Z,1003.68
2017-08-22T02:30:40.805Z,1003.68
2017-08-22T02:31:51.205Z,1003.68
2017-08-22T02:33:01.259Z,1003.68
2017-08-22T02:34:11.605Z,1003.68
2017-08-22T02:35:21.633Z,1003.67
2017-08-22T02:36:31.967Z,1003.64
2017-08-22T02:37:42.350Z,1003.68
2017-08-22T02:38:52.704Z,1003.66
2017-08-22T02:40:03.063Z,1003.71
2017-08-22T02:41:17.288Z,1003.71
2017-08-22T02:42:27.632Z,1003.73
2017-08-22T02:43:38.033Z,1003.73
2017-08-22T02:44:48.381Z,1003.72
2017-08-22T02:45:58.093Z,1003.69
2017-08-22T02:47:08.443Z,1003.73
2017-08-22T02:48:18.776Z,1003.73
2017-08-22T02:49:29.186Z,1003.75
2017-08-22T02:50:43.349Z,1003.76
2017-08-22T02:51:53.690Z,1003.74
2017-08-22T02:53:04.034Z,1003.79
2017-08-22T02:54:14.373Z,1003.76
2017-08-22T02:55:28.426Z,1003.75
2017-08-22T02:56:38.772Z,1003.75
2017-08-22T02:57:50.459Z,1003.73
2017-08-22T02:59:00.814Z,1003.72
2017-08-22T03:00:10.843Z,1003.69
2017-08-22T03:01:21.217Z,1003.75
2017-08-22T03:32:50.027Z,1003.84
2017-08-22T03:34:02.540Z,1003.83
2017-08-22T03:35:12.561Z,1003.86
2017-08-22T03:36:22.894Z,1003.86
2017-08-22T03:37:33.225Z,1003.87
2017-08-22T03:38:43.282Z,1003.88
2017-08-22T03:39:53.622Z,1003.86
2017-08-22T03:41:03.967Z,1003.89
2017-08-22T03:42:15.451Z,1003.89
2017-08-22T03:43:25.775Z,1003.92
2017-08-22T03:44:36.165Z,1003.93
2017-08-22T03:45:46.493Z,1003.95
2017-08-22T03:46:56.560Z,1003.94
2017-08-22T03:48:06.889Z,1003.95
2017-08-22T03:49:17.216Z,1003.96
2017-08-22T03:50:26.976Z,1003.94
2017-08-22T03:51:37.015Z,1003.9
2017-08-22T03:52:47.372Z,1003.91
2017-08-22T03:53:57.700Z,1003.94
2017-08-22T03:55:08.051Z,1003.93
2017-08-22T03:56:17.816Z,1003.92
2017-08-22T03:57:28.165Z,1003.92
2017-08-22T03:58:38.187Z,1003.95
2017-08-22T03:59:48.235Z,1003.98
2017-08-22T04:00:58.586Z,1003.97
2017-08-22T04:02:08.967Z,1004
2017-08-22T04:03:18.711Z,1004.02
2017-08-22T04:04:28.426Z,1003.99
2017-08-22T04:05:38.450Z,1003.97
2017-08-22T04:06:48.809Z,1003.98
2017-08-22T04:07:58.880Z,1003.96
2017-08-22T04:09:09.404Z,1003.98
2017-08-22T04:10:19.129Z,1003.98
2017-08-22T04:11:29.466Z,1003.98
2017-08-22T04:12:39.802Z,1004.01
2017-08-22T04:13:50.206Z,1004
2017-08-22T04:15:00.222Z,1004.03
2017-08-22T04:16:10.563Z,1004.05
2017-08-22T04:17:20.910Z,1004.08
2017-08-22T04:18:30.950Z,1004.11
2017-08-22T04:19:41.060Z,1004.07
2017-08-22T04:20:51.399Z,1004.1
2017-08-22T04:22:01.753Z,1004.1
2017-08-22T04:23:12.144Z,1004.11
2017-08-22T04:24:22.491Z,1004.11
2017-08-22T04:25:40.857Z,1004.11
2017-08-22T04:26:50.885Z,1004.1
2017-08-22T04:28:01.224Z,1004.09
2017-08-22T04:29:12.457Z,1004.08
2017-08-22T04:30:23.136Z,1004.12
2017-08-22T04:31:33.461Z,1004.11
2017-08-22T04:32:43.836Z,1004.13
2017-08-22T04:33:54.188Z,1004.12
2017-08-22T04:35:04.536Z,1004.14
2017-08-22T04:36:14.930Z,1004.15
2017-08-22T04:37:25.265Z,1004.21
2017-08-22T04:38:35.588Z,1004.22
2017-08-22T04:39:45.623Z,1004.21
2017-08-22T04:40:57.115Z,1004.22
2017-08-22T04:42:07.508Z,1004.19
2017-08-22T04:43:26.221Z,1004.21
2017-08-22T04:44:36.256Z,1004.21
2017-08-22T04:45:47.691Z,1004.21
2017-08-22T04:46:58.059Z,1004.23
2017-08-22T04:48:08.453Z,1004.27
2017-08-22T04:49:18.800Z,1004.22
2017-08-22T04:50:28.826Z,1004.27
2017-08-22T04:51:38.856Z,1004.27
2017-08-22T04:52:49.250Z,1004.28
2017-08-22T04:53:59.594Z,1004.32
2017-08-22T04:55:10.520Z,1004.32
2017-08-22T04:56:22.051Z,1004.3
2017-08-22T04:57:32.391Z,1004.3
2017-08-22T04:58:42.773Z,1004.31
2017-08-22T04:59:52.481Z,1004.27
2017-08-22T05:01:02.820Z,1004.26
2017-08-22T05:02:13.164Z,1004.32
2017-08-22T05:03:23.200Z,1004.31
2017-08-22T05:04:33.590Z,1004.28
2017-08-22T05:05:43.943Z,1004.32
2017-08-22T05:06:53.976Z,1004.3
2017-08-22T05:08:04.326Z,1004.32
2017-08-22T05:09:14.655Z,1004.35
2017-08-22T05:10:25.094Z,1004.35
2017-08-22T05:11:35.433Z,1004.43
2017-08-22T05:12:45.758Z,1004.44
2017-08-22T05:13:56.097Z,1004.42
2017-08-22T05:15:06.446Z,1004.44
2017-08-22T05:16:16.840Z,1004.49
2017-08-22T05:17:27.189Z,1004.49
2017-08-22T05:18:37.540Z,1004.46
2017-08-22T05:19:47.885Z,1004.44
2017-08-22T05:20:57.922Z,1004.38
2017-08-22T05:22:07.698Z,1004.35
2017-08-22T05:23:18.049Z,1004.38
2017-08-22T05:24:34.642Z,1004.45
2017-08-22T05:25:44.989Z,1004.43
2017-08-22T05:26:55.025Z,1004.44
2017-08-22T05:28:05.418Z,1004.43
2017-08-22T05:29:16.014Z,1004.44
2017-08-22T05:30:25.737Z,1004.46
2017-08-22T05:31:36.094Z,1004.4
2017-08-22T05:32:45.810Z,1004.42
2017-08-22T05:33:55.879Z,1004.4
2017-08-22T05:35:06.239Z,1004.37
2017-08-22T05:36:15.984Z,1004.36
2017-08-22T05:37:26.013Z,1004.36
2017-08-22T05:38:36.046Z,1004.32
2017-08-22T05:39:46.431Z,1004.35
2017-08-22T05:40:56.775Z,1004.35
2017-08-22T05:42:06.812Z,1004.39
2017-08-22T05:43:17.152Z,1004.4
2017-08-22T05:44:27.173Z,1004.4
2017-08-22T05:45:37.294Z,1004.31
2017-08-22T05:46:47.652Z,1004.25
2017-08-22T05:47:58.020Z,1004.28
2017-08-22T05:49:08.056Z,1004.3
2017-08-22T05:50:21.419Z,1004.35
2017-08-22T05:51:31.804Z,1004.39
2017-08-22T05:52:41.846Z,1004.33
2017-08-22T05:53:52.199Z,1004.26
2017-08-22T05:55:02.536Z,1004.22
2017-08-22T05:56:12.895Z,1004.26
2017-08-22T05:57:23.006Z,1004.21
2017-08-22T05:58:33.403Z,1004.21
2017-08-22T05:59:43.435Z,1004.19
2017-08-22T06:00:53.490Z,1004.24
2017-08-22T06:02:03.836Z,1004.3
2017-08-22T06:03:13.882Z,1004.22
2017-08-22T06:04:23.971Z,1004.28
2017-08-22T06:05:34.310Z,1004.22
2017-08-22T06:06:44.895Z,1004.22
2017-08-22T06:07:55.246Z,1004.25
2017-08-22T06:09:05.586Z,1004.24
2017-08-22T06:10:15.981Z,1004.23
2017-08-22T06:11:26.373Z,1004.25
2017-08-22T06:12:36.714Z,1004.25
2017-08-22T06:13:46.766Z,1004.27
2017-08-22T06:14:57.116Z,1004.28
2017-08-22T06:16:07.505Z,1004.27
2017-08-22T06:17:17.552Z,1004.3
2017-08-22T06:18:27.895Z,1004.29
2017-08-22T06:19:38.676Z,1004.25
2017-08-22T06:20:49.015Z,1004.23
2017-08-22T06:21:59.427Z,1004.21
2017-08-22T06:23:09.792Z,1004.2
2017-08-22T06:24:19.833Z,1004.16
2017-08-22T06:25:30.174Z,1004.18
2017-08-22T06:26:40.527Z,1004.19
2017-08-22T06:27:50.622Z,1004.19
2017-08-22T06:29:00.968Z,1004.15
2017-08-22T06:30:11.310Z,1004.18
2017-08-22T06:31:21.671Z,1004.16
2017-08-22T06:32:31.713Z,1004.19
2017-08-22T06:33:42.118Z,1004.18
2017-08-22T06:34:52.469Z,1004.17
2017-08-22T06:36:02.813Z,1004.13
2017-08-22T06:37:13.172Z,1004.14
2017-08-22T06:38:23.508Z,1004.14
2017-08-22T06:39:33.570Z,1004.18
2017-08-22T06:40:43.608Z,1004.17
2017-08-22T06:41:53.991Z,1004.14
2017-08-22T06:43:04.044Z,1004.07
2017-08-22T06:44:14.082Z,1004.11
2017-08-22T06:45:24.172Z,1004.07
2017-08-22T06:46:34.211Z,1004.05
2017-08-22T06:47:44.262Z,1004.06
2017-08-22T06:48:54.305Z,1004.08
2017-08-22T06:50:06.236Z,1004.07
2017-08-22T06:51:16.648Z,1004.02
2017-08-22T06:52:27.010Z,1004.05
2017-08-22T06:53:37.363Z,1004.06
2017-08-22T06:54:47.740Z,1004.08
2017-08-22T06:55:58.086Z,1004.06
2017-08-22T06:57:08.473Z,1004.05
2017-08-22T06:58:20.503Z,1004.05
2017-08-22T06:59:30.845Z,1004.04
2017-08-22T07:00:40.876Z,1004.04
2017-08-22T07:01:50.924Z,1004.06
2017-08-22T07:03:01.325Z,1004.08
2017-08-22T07:04:11.676Z,1004.05
2017-08-22T07:05:22.034Z,1004.11
2017-08-22T07:06:36.239Z,1004.11
2017-08-22T07:07:46.581Z,1004.1
2017-08-22T07:08:56.986Z,1004.09
2017-08-22T07:10:07.341Z,1004.1
2017-08-22T07:11:17.388Z,1004.09
2017-08-22T07:12:29.749Z,1004.09
2017-08-22T07:13:40.107Z,1004.1
2017-08-22T07:14:50.516Z,1004.1
2017-08-22T07:16:02.097Z,1004.08
2017-08-22T07:17:12.438Z,1004.09
2017-08-22T07:18:22.795Z,1004.13
2017-08-22T07:19:32.826Z,1004.1
2017-08-22T07:20:45.227Z,1004.08
2017-08-22T07:21:55.272Z,1004.08
2017-08-22T07:23:05.622Z,1004.05
2017-08-22T07:24:15.024Z,1004.06
2017-08-22T07:25:25.074Z,1004.1
2017-08-22T07:26:35.470Z,1004.08
2017-08-22T07:27:45.829Z,1004.09
2017-08-22T07:28:56.163Z,1004.07
2017-08-22T07:30:06.515Z,1004.11
2017-08-22T07:31:16.557Z,1004.08
2017-08-22T07:32:27.056Z,1004.04
2017-08-22T07:33:37.409Z,1004.05
2017-08-22T07:34:47.768Z,1004.06
2017-08-22T07:35:58.110Z,1004.09
2017-08-22T07:37:08.702Z,1004.06
2017-08-22T07:38:19.106Z,1004.07
2017-08-22T07:39:29.165Z,1004.06
2017-08-22T07:40:39.537Z,1004.05
2017-08-22T07:41:49.585Z,1004.07
2017-08-22T07:42:59.625Z,1004.1
2017-08-22T07:44:09.835Z,1004.06
2017-08-22T07:45:20.249Z,1004.06
2017-08-22T07:46:30.619Z,1004.07
2017-08-22T07:47:40.983Z,1004.05
2017-08-22T07:48:51.026Z,1004.02
2017-08-22T07:50:01.127Z,1004
2017-08-22T07:51:11.197Z,1004.02
2017-08-22T07:52:21.570Z,1004.05
2017-08-22T07:53:31.965Z,1004.01
2017-08-22T07:54:42.333Z,1004.07
2017-08-22T07:55:52.766Z,1004.02
2017-08-22T07:57:03.116Z,1004.03
2017-08-22T07:58:13.181Z,1004.07
2017-08-22T07:59:23.590Z,1004.03
2017-08-22T08:00:33.972Z,1004.03
2017-08-22T08:01:43.743Z,1004.01
2017-08-22T08:02:53.782Z,1003.98
2017-08-22T08:04:03.544Z,1004
2017-08-22T08:05:13.274Z,1004.01
2017-08-22T08:06:23.652Z,1004
2017-08-22T08:07:34.083Z,1004.03
2017-08-22T08:08:44.160Z,1004.04
2017-08-22T08:09:54.531Z,1004.05
2017-08-22T08:11:04.903Z,1004.06
2017-08-22T08:12:14.955Z,1004.06
2017-08-22T08:13:25.402Z,1004.06
2017-08-22T08:14:35.766Z,1004.04
2017-08-22T08:15:46.132Z,1004.04
2017-08-22T08:16:56.500Z,1004.08
2017-08-22T08:18:06.879Z,1004.06
2017-08-22T08:19:17.304Z,1004.06
2017-08-22T08:20:27.351Z,1004.05
2017-08-22T08:21:39.138Z,1004.02
2017-08-22T08:22:49.533Z,1003.99
2017-08-22T08:24:00.096Z,1004
2017-08-22T08:25:10.519Z,1003.98
2017-08-22T08:26:22.516Z,1004
2017-08-22T08:27:32.585Z,1004
2017-08-22T08:28:43.010Z,1004
2017-08-22T08:29:53.086Z,1004
2017-08-22T08:31:03.503Z,1003.98
2017-08-22T08:32:13.587Z,1003.97
2017-08-22T08:33:23.946Z,1003.92
2017-08-22T08:34:34.306Z,1003.92
2017-08-22T08:35:44.356Z,1003.92
2017-08-22T08:36:54.760Z,1003.89
2017-08-22T08:38:05.130Z,1003.85
2017-08-22T08:39:15.505Z,1003.9
2017-08-22T08:40:25.873Z,1003.85
2017-08-22T08:41:36.273Z,1003.8
2017-08-22T08:42:46.705Z,1003.81
2017-08-22T08:43:57.086Z,1003.82
2017-08-22T08:45:07.461Z,1003.8
2017-08-22T08:46:17.540Z,1003.77
2017-08-22T08:47:27.902Z,1003.74
2017-08-22T08:48:38.312Z,1003.77
2017-08-22T08:49:48.077Z,1003.78
2017-08-22T08:50:58.434Z,1003.75
2017-08-22T08:52:08.496Z,1003.71
2017-08-22T08:53:18.563Z,1003.67
2017-08-22T08:54:28.970Z,1003.65
2017-08-22T08:55:39.065Z,1003.64
2017-08-22T08:56:49.436Z,1003.61
2017-08-22T08:57:59.152Z,1003.6
2017-08-22T08:59:09.518Z,1003.62
2017-08-22T09:00:19.938Z,1003.6
2017-08-22T09:01:30.556Z,1003.6
2017-08-22T09:02:40.982Z,1003.55
2017-08-22T09:03:51.037Z,1003.57
2017-08-22T09:05:01.432Z,1003.51
2017-08-22T09:06:11.893Z,1003.58
2017-08-22T09:07:22.332Z,1003.55
2017-08-22T09:08:32.730Z,1003.53
2017-08-22T09:09:43.091Z,1003.51
2017-08-22T09:10:53.464Z,1003.48
2017-08-22T09:12:03.560Z,1003.54
2017-08-22T09:13:13.617Z,1003.52
2017-08-22T09:14:23.660Z,1003.49
2017-08-22T09:15:32.789Z,1003.48
2017-08-22T09:16:43.157Z,1003.45
2017-08-22T09:17:53.604Z,1003.45
2017-08-22T09:19:03.973Z,1003.46
2017-08-22T09:20:14.341Z,1003.42
2017-08-22T09:21:24.419Z,1003.45
2017-08-22T09:22:34.803Z,1003.43
2017-08-22T09:23:45.231Z,1003.44
2017-08-22T09:24:56.080Z,1003.39
2017-08-22T09:26:06.139Z,1003.34
2017-08-22T09:27:16.551Z,1003.3
2017-08-22T09:28:26.937Z,1003.33
2017-08-22T09:29:37.061Z,1003.31
2017-08-22T09:30:47.448Z,1003.32
2017-08-22T09:31:57.819Z,1003.3
2017-08-22T09:33:08.186Z,1003.29
2017-08-22T09:34:18.279Z,1003.27
2017-08-22T09:35:28.678Z,1003.28
2017-08-22T09:36:38.733Z,1003.24
2017-08-22T09:37:49.113Z,1003.27
2017-08-22T09:38:59.515Z,1003.24
2017-08-22T09:40:09.899Z,1003.3
2017-08-22T09:41:20.335Z,1003.28
2017-08-22T09:42:30.829Z,1003.24
2017-08-22T09:43:41.276Z,1003.23
2017-08-22T09:44:51.655Z,1003.2
2017-08-22T09:46:02.002Z,1003.21
2017-08-22T09:47:12.130Z,1003.19
2017-08-22T09:48:22.176Z,1003.15
2017-08-22T09:49:32.526Z,1003.1
2017-08-22T09:50:42.884Z,1003.11
2017-08-22T09:51:53.244Z,1003.09
2017-08-22T09:53:03.646Z,1003.05
2017-08-22T09:54:13.689Z,1003.04
2017-08-22T09:55:24.046Z,1003.01
2017-08-22T09:56:34.408Z,1003.02
2017-08-22T09:57:47.104Z,1002.98
2017-08-22T09:58:57.199Z,1002.96
2017-08-22T10:00:07.571Z,1002.94
2017-08-22T10:01:17.923Z,1002.91
2017-08-22T10:02:28.268Z,1002.95
2017-08-22T10:03:38.014Z,1002.9
2017-08-22T10:04:48.417Z,1002.84
2017-08-22T10:05:58.800Z,1002.91
2017-08-22T10:07:09.162Z,1002.86
2017-08-22T10:08:19.521Z,1002.83
2017-08-22T10:09:29.552Z,1002.8
2017-08-22T10:10:39.955Z,1002.85
2017-08-22T10:11:50.317Z,1002.77
2017-08-22T10:13:00.360Z,1002.78
2017-08-22T10:14:10.726Z,1002.79
2017-08-22T10:15:21.068Z,1002.81
2017-08-22T10:16:31.472Z,1002.76
2017-08-22T10:17:41.822Z,1002.79
2017-08-22T10:18:52.177Z,1002.78
2017-08-22T10:20:02.556Z,1002.78
2017-08-22T10:21:12.591Z,1002.79
2017-08-22T10:22:22.999Z,1002.77
2017-08-22T10:23:33.355Z,1002.73
2017-08-22T10:24:43.564Z,1002.74
2017-08-22T10:25:53.917Z,1002.65
2017-08-22T10:27:04.024Z,1002.65
2017-08-22T10:28:14.419Z,1002.63
2017-08-22T10:29:24.768Z,1002.68
2017-08-22T10:30:34.810Z,1002.61
2017-08-22T10:31:46.243Z,1002.61
2017-08-22T10:32:56.605Z,1002.66
2017-08-22T10:34:06.389Z,1002.63
2017-08-22T10:35:16.464Z,1002.6
2017-08-22T10:36:29.375Z,1002.57
2017-08-22T10:37:39.726Z,1002.58
2017-08-22T10:38:50.075Z,1002.61
2017-08-22T10:40:00.476Z,1002.57
2017-08-22T10:41:10.837Z,1002.6
2017-08-22T10:42:21.185Z,1002.59
2017-08-22T10:43:31.595Z,1002.52
2017-08-22T10:44:41.626Z,1002.58
2017-08-22T10:45:52.038Z,1002.61
2017-08-22T10:47:02.380Z,1002.55
2017-08-22T10:48:15.335Z,1002.51
2017-08-22T10:49:26.449Z,1002.62
2017-08-22T10:50:36.892Z,1002.51
2017-08-22T10:51:47.301Z,1002.52
2017-08-22T10:52:57.667Z,1002.51
2017-08-22T10:54:07.696Z,1002.44
2017-08-22T10:55:20.139Z,1002.52
2017-08-22T10:56:30.476Z,1002.47
2017-08-22T10:57:40.875Z,1002.53
2017-08-22T10:58:51.252Z,1002.48
2017-08-22T11:00:01.616Z,1002.45
2017-08-22T11:01:11.971Z,1002.42
2017-08-22T11:02:22.327Z,1002.35
2017-08-22T11:03:32.745Z,1002.39
2017-08-22T11:04:43.116Z,1002.36
2017-08-22T11:05:53.177Z,1002.35
2017-08-22T11:07:03.562Z,1002.28
2017-08-22T11:08:13.928Z,1002.39
2017-08-22T11:09:24.362Z,1002.33
2017-08-22T11:10:34.724Z,1002.38
2017-08-22T11:11:44.780Z,1002.33
2017-08-22T11:12:54.836Z,1002.32
2017-08-22T11:14:04.906Z,1002.27
2017-08-22T11:15:15.315Z,1002.27
2017-08-22T11:16:25.678Z,1002.22
2017-08-22T11:17:35.731Z,1002.27
2017-08-22T11:18:47.206Z,1002.24
2017-08-22T11:19:57.602Z,1002.2
2017-08-22T11:21:08.022Z,1002.21
2017-08-22T11:22:18.053Z,1002.22
2017-08-22T11:23:28.401Z,1002.16
2017-08-22T11:24:39.453Z,1002.1
2017-08-22T11:25:49.854Z,1002.17
2017-08-22T11:27:00.260Z,1002.17
2017-08-22T11:28:09.985Z,1002.13
2017-08-22T11:29:20.019Z,1002.11
2017-08-22T11:30:30.402Z,1002.09
2017-08-22T11:31:43.174Z,1002.05
2017-08-22T11:32:53.587Z,1002.07
2017-08-22T11:34:03.656Z,1002.09
2017-08-22T11:35:14.051Z,1002.13
2017-08-22T11:36:24.120Z,1001.99
2017-08-22T11:37:34.156Z,1002.04
2017-08-22T11:38:48.224Z,1001.98
2017-08-22T11:39:58.602Z,1002
2017-08-22T11:41:08.963Z,1001.91
2017-08-22T11:42:19.328Z,1001.97
2017-08-22T11:43:29.367Z,1001.94
2017-08-22T11:44:39.487Z,1001.91
2017-08-22T11:45:49.865Z,1001.96
2017-08-22T11:47:00.260Z,1001.96
2017-08-22T11:48:10.631Z,1001.93
2017-08-22T11:49:21.004Z,1001.9
2017-08-22T11:50:34.035Z,1001.87
2017-08-22T11:51:44.085Z,1001.87
2017-08-22T11:52:54.447Z,1001.85
2017-08-22T11:54:04.808Z,1001.83
2017-08-22T11:55:15.152Z,1001.78
2017-08-22T11:56:25.581Z,1001.81
2017-08-22T11:57:35.953Z,1001.78
2017-08-22T11:58:46.315Z,1001.78
2017-08-22T11:59:56.368Z,1001.72
2017-08-22T12:01:07.739Z,1001.71
2017-08-22T12:02:18.168Z,1001.66
2017-08-22T12:03:28.545Z,1001.63
2017-08-22T12:04:38.282Z,1001.6
2017-08-22T12:05:48.651Z,1001.65
2017-08-22T12:06:59.012Z,1001.64
2017-08-22T12:08:09.423Z,1001.61
2017-08-22T12:09:19.782Z,1001.56
2017-08-22T12:10:29.838Z,1001.57
2017-08-22T12:11:40.218Z,1001.54
2017-08-22T12:12:50.580Z,1001.5
2017-08-22T12:14:00.985Z,1001.45
2017-08-22T12:15:11.356Z,1001.45
2017-08-22T12:16:21.706Z,1001.46
2017-08-22T12:17:32.097Z,1001.44
2017-08-22T12:18:42.458Z,1001.37
2017-08-22T12:19:52.574Z,1001.37
2017-08-22T12:21:02.952Z,1001.38
2017-08-22T12:22:13.320Z,1001.36
2017-08-22T12:23:23.364Z,1001.37
2017-08-22T12:24:33.722Z,1001.32
2017-08-22T12:25:44.146Z,1001.32
2017-08-22T12:26:54.527Z,1001.3
2017-08-22T12:28:04.912Z,1001.25
2017-08-22T12:29:14.963Z,1001.35
2017-08-22T12:30:25.308Z,1001.25
2017-08-22T12:31:35.719Z,1001.21
2017-08-22T12:32:46.099Z,1001.17
2017-08-22T12:33:56.492Z,1001.22
2017-08-22T12:35:06.842Z,1001.21
2017-08-22T12:36:16.892Z,1001.22
2017-08-22T12:37:27.312Z,1001.19
2017-08-22T12:38:37.355Z,1001.16
2017-08-22T12:39:47.397Z,1001.19
2017-08-22T12:40:57.459Z,1001.12
2017-08-22T12:42:07.508Z,1001.14
2017-08-22T12:43:17.921Z,1001.15
2017-08-22T12:44:27.964Z,1001.1
2017-08-22T12:45:38.305Z,1001.09
2017-08-22T12:46:48.363Z,1001.14
2017-08-22T12:47:58.744Z,1001.14
2017-08-22T12:49:09.159Z,1001.12
2017-08-22T12:50:19.547Z,1001.06
2017-08-22T12:51:29.594Z,1001.12
2017-08-22T12:52:39.989Z,1001.05
2017-08-22T12:53:50.377Z,1001.07
2017-08-22T12:55:00.802Z,1001
2017-08-22T12:56:11.167Z,1001
2017-08-22T12:57:21.513Z,1001
2017-08-22T12:58:31.889Z,1001.01
2017-08-22T12:59:42.290Z,1000.95
2017-08-22T13:00:52.392Z,1000.89
2017-08-22T13:02:02.135Z,1000.89
2017-08-22T13:03:12.496Z,1000.92
2017-08-22T13:04:22.841Z,1000.95
2017-08-22T13:05:33.217Z,1000.95
2017-08-22T13:06:43.621Z,1000.9
2017-08-22T13:07:53.990Z,1000.93
2017-08-22T13:09:04.376Z,1000.88
2017-08-22T13:10:14.421Z,1000.79
2017-08-22T13:11:24.787Z,1000.87
2017-08-22T13:12:35.222Z,1000.81
2017-08-22T13:13:45.575Z,1000.83
2017-08-22T13:14:55.950Z,1000.81
2017-08-22T13:16:06.336Z,1000.82
2017-08-22T13:17:16.383Z,1000.8
2017-08-22T13:18:26.790Z,1000.82
2017-08-22T13:19:37.145Z,1000.77
2017-08-22T13:20:49.440Z,1000.74
2017-08-22T13:21:59.812Z,1000.72
2017-08-22T13:23:10.168Z,1000.74
2017-08-22T13:24:20.590Z,1000.78
2017-08-22T13:25:30.957Z,1000.77
2017-08-22T13:26:41.310Z,1000.75
2017-08-22T13:27:51.666Z,1000.74
2017-08-22T13:29:01.731Z,1000.7
2017-08-22T13:30:14.357Z,1000.72
2017-08-22T13:31:24.422Z,1000.71
2017-08-22T13:32:34.483Z,1000.67
2017-08-22T13:33:44.857Z,1000.71
2017-08-22T13:34:55.258Z,1000.65
2017-08-22T13:36:05.356Z,1000.66
2017-08-22T13:37:15.738Z,1000.64
2017-08-22T13:38:26.304Z,1000.63
2017-08-22T13:39:36.664Z,1000.66
2017-08-22T13:40:47.022Z,1000.66
2017-08-22T13:41:57.435Z,1000.67
2017-08-22T13:43:07.803Z,1000.7
2017-08-22T13:44:18.148Z,1000.66
2017-08-22T13:45:28.544Z,1000.62
2017-08-22T13:46:38.939Z,1000.67
2017-08-22T13:47:49.338Z,1000.6
2017-08-22T13:48:59.697Z,1000.57
2017-08-22T13:50:10.046Z,1000.53
2017-08-22T13:51:20.416Z,1000.54
2017-08-22T13:52:30.476Z,1000.49
2017-08-22T13:53:40.938Z,1000.48
2017-08-22T13:54:51.009Z,1000.55
2017-08-22T13:56:01.386Z,1000.55
2017-08-22T13:57:11.757Z,1000.52
2017-08-22T13:58:22.138Z,1000.56
2017-08-22T13:59:32.524Z,1000.45
2017-08-22T14:00:42.583Z,1000.5
2017-08-22T14:01:52.936Z,1000.43
2017-08-22T14:03:03.285Z,1000.46
2017-08-22T14:04:13.715Z,1000.51
2017-08-22T14:05:24.092Z,1000.49
2017-08-22T14:06:34.134Z,1000.46
2017-08-22T14:07:44.524Z,1000.43
2017-08-22T14:08:54.893Z,1000.46
2017-08-22T14:10:05.314Z,1000.43
2017-08-22T14:11:15.707Z,1000.43
2017-08-22T14:12:26.065Z,1000.41
2017-08-22T14:13:36.428Z,1000.43
2017-08-22T14:14:46.476Z,1000.4
2017-08-22T14:15:57.094Z,1000.4
2017-08-22T14:17:07.466Z,1000.35
2017-08-22T14:18:17.493Z,1000.38
2017-08-22T14:19:27.918Z,1000.31
2017-08-22T14:20:38.297Z,1000.32
2017-08-22T14:21:48.378Z,1000.34
2017-08-22T14:23:01.180Z,1000.3
2017-08-22T14:24:13.491Z,1000.28
2017-08-22T14:25:23.433Z,1000.25
2017-08-22T14:26:33.913Z,1000.22
2017-08-22T14:27:44.303Z,1000.23
2017-08-22T14:28:54.362Z,1000.24
2017-08-22T14:30:04.716Z,1000.21
2017-08-22T14:31:14.456Z,1000.21
2017-08-22T14:32:24.500Z,1000.24
2017-08-22T14:33:34.855Z,1000.19
2017-08-22T14:34:45.219Z,1000.19
2017-08-22T14:35:55.601Z,1000.19
2017-08-22T14:37:05.966Z,1000.22
2017-08-22T14:38:16.330Z,1000.17
2017-08-22T14:39:26.776Z,1000.14
2017-08-22T14:40:36.838Z,1000.11
2017-08-22T14:41:47.201Z,1000.05
2017-08-22T14:42:57.557Z,1000.07
2017-08-22T14:44:07.597Z,1000.09
2017-08-22T14:45:18.017Z,1000.06
2017-08-22T14:46:28.059Z,1000.04